Time;durP1;ratioP1;P1;durP2;ratioP2;P2;SDS_P1;SDS_P2;PMS_P1;PMS_P2;Temp;Humidity;BMP_temperature;BMP_pressure;BME280_temperature;BME280_humidity;BME280_pressure;Samples;Min_cycle;Max_cycle;Signal;HPM_P1;HPM_P2
2021/07/22 00:00:10;;;;;;;13.73;11.90;;;16.60;81.70;;;;;;5115756;28;20177;-90
2021/07/22 00:02:35;;;;;;;14.40;11.23;;;16.70;81.20;;;;;;5115951;28;20242;-90
2021/07/22 00:05:01;;;;;;;15.98;11.02;;;16.70;81.20;;;;;;5115491;28;20205;-90
2021/07/22 00:07:28;;;;;;;15.68;10.98;;;16.70;81.40;;;;;;5115972;28;20193;-90
2021/07/22 00:09:54;;;;;;;15.15;11.75;;;16.70;81.50;;;;;;5114032;28;20174;-90
2021/07/22 00:12:19;;;;;;;15.90;12.05;;;16.70;81.40;;;;;;5115118;28;20284;-90
2021/07/22 00:14:45;;;;;;;16.05;11.75;;;16.80;81.40;;;;;;5115325;28;20174;-90
2021/07/22 00:17:11;;;;;;;17.98;11.63;;;16.70;82.00;;;;;;5115126;28;20201;-90
2021/07/22 00:19:38;;;;;;;18.48;10.90;;;16.70;82.00;;;;;;5115026;28;20714;-90
2021/07/22 00:22:04;;;;;;;14.93;11.10;;;16.70;81.60;;;;;;5115066;28;20199;-90
2021/07/22 00:24:29;;;;;;;15.05;10.45;;;16.80;81.10;;;;;;5115296;28;20220;-90
2021/07/22 00:26:56;;;;;;;14.85;10.57;;;16.80;80.80;;;;;;5114960;28;20166;-90
2021/07/22 00:29:21;;;;;;;16.02;10.45;;;16.80;80.50;;;;;;5114895;28;20174;-90
2021/07/22 00:31:47;;;;;;;17.38;10.18;;;16.90;80.40;;;;;;5114683;28;20531;-90
2021/07/22 00:34:13;;;;;;;14.13;10.43;;;16.90;80.30;;;;;;5114779;28;20166;-90
2021/07/22 00:36:39;;;;;;;16.80;10.40;;;16.90;80.20;;;;;;5113616;28;20177;-90
2021/07/22 00:39:05;;;;;;;16.67;10.68;;;16.90;80.20;;;;;;5113502;28;20178;-90
2021/07/22 00:41:37;;;;;;;15.98;10.43;;;16.90;80.00;;;;;;5096279;28;20196;-90
2021/07/22 00:44:03;;;;;;;13.52;11.43;;;16.90;80.00;;;;;;5114829;28;20218;-90
2021/07/22 00:46:28;;;;;;;12.30;10.48;;;16.90;80.10;;;;;;5114969;28;20174;-90
2021/07/22 00:48:54;;;;;;;15.50;11.00;;;16.90;79.90;;;;;;5114509;28;20662;-90
2021/07/22 00:51:20;;;;;;;14.48;10.63;;;16.90;79.90;;;;;;5114480;28;20513;-90
2021/07/22 00:53:45;;;;;;;16.58;10.52;;;17.00;79.90;;;;;;5114376;28;20290;-90
2021/07/22 00:56:11;;;;;;;12.43;10.57;;;17.00;80.10;;;;;;5114541;28;20166;-90
2021/07/22 00:58:36;;;;;;;12.82;10.75;;;17.00;80.20;;;;;;5096028;28;20221;-90
2021/07/22 01:01:02;;;;;;;18.50;11.25;;;17.00;80.80;;;;;;5114378;28;20177;-90
2021/07/22 01:03:28;;;;;;;12.75;10.57;;;17.00;81.30;;;;;;5114294;28;20174;-90
2021/07/22 01:05:53;;;;;;;14.20;11.05;;;16.90;81.80;;;;;;5114481;28;20595;-90
2021/07/22 01:08:19;;;;;;;14.80;11.07;;;16.90;81.80;;;;;;5114401;28;20211;-90
2021/07/22 01:10:44;;;;;;;14.80;10.38;;;16.80;82.20;;;;;;5114322;28;20181;-90
2021/07/22 01:13:10;;;;;;;16.60;11.23;;;16.80;82.20;;;;;;5114312;28;20197;-90
2021/07/22 01:15:36;;;;;;;21.48;12.43;;;16.80;82.10;;;;;;5114434;28;20169;-90
2021/07/22 01:18:01;;;;;;;19.65;12.10;;;16.80;82.60;;;;;;5113989;28;20206;-90
2021/07/22 01:20:28;;;;;;;24.77;13.95;;;16.80;83.10;;;;;;5114203;28;20162;-90
2021/07/22 01:22:56;;;;;;;16.23;12.13;;;16.70;83.70;;;;;;5114316;28;20178;-90
2021/07/22 01:25:22;;;;;;;17.80;12.57;;;16.60;83.70;;;;;;5114532;28;20182;-90
2021/07/22 01:27:49;;;;;;;14.73;11.73;;;16.60;83.60;;;;;;5114284;28;20186;-89
2021/07/22 01:30:15;;;;;;;20.98;12.60;;;16.70;83.70;;;;;;5114365;28;20171;-90
2021/07/22 01:32:41;;;;;;;15.30;10.82;;;16.70;83.70;;;;;;5114282;28;20197;-90
2021/07/22 01:35:09;;;;;;;13.60;10.63;;;16.70;83.40;;;;;;5114026;28;20243;-90
2021/07/22 01:37:37;;;;;;;17.10;10.27;;;16.70;82.90;;;;;;5113740;28;20186;-90
2021/07/22 01:40:04;;;;;;;13.55;8.60;;;16.70;81.80;;;;;;5113844;28;20170;-90
2021/07/22 01:42:32;;;;;;;12.90;8.55;;;16.50;80.80;;;;;;5114037;28;20177;-90
2021/07/22 01:44:58;;;;;;;10.07;8.30;;;16.40;80.70;;;;;;5114207;28;20170;-90
2021/07/22 01:47:24;;;;;;;13.25;8.10;;;16.30;80.90;;;;;;5114009;28;20200;-90
2021/07/22 01:49:49;;;;;;;10.32;7.10;;;16.30;81.00;;;;;;5114045;28;20186;-90
2021/07/22 01:52:15;;;;;;;11.45;7.05;;;16.30;80.90;;;;;;5113954;28;20198;-90
2021/07/22 01:54:41;;;;;;;9.18;7.10;;;16.30;80.60;;;;;;5118283;28;20694;-89
2021/07/22 01:57:06;;;;;;;9.10;6.93;;;16.30;80.70;;;;;;5117948;28;20189;-90
2021/07/22 01:59:35;;;;;;;9.57;7.30;;;16.40;80.70;;;;;;5117961;28;20158;-90
2021/07/22 02:02:05;;;;;;;13.57;6.53;;;16.40;80.70;;;;;;5118004;28;20162;-90
2021/07/22 02:04:31;;;;;;;9.23;6.25;;;16.50;80.50;;;;;;5117807;28;20532;-90
2021/07/22 02:06:57;;;;;;;11.15;6.30;;;16.50;80.60;;;;;;5117659;28;20532;-90
2021/07/22 02:09:23;;;;;;;10.43;6.18;;;16.50;80.60;;;;;;5117612;28;20166;-90
2021/07/22 02:11:49;;;;;;;10.38;6.15;;;16.50;80.50;;;;;;5117572;28;20173;-90
2021/07/22 02:14:15;;;;;;;14.23;6.22;;;16.40;80.30;;;;;;5117470;28;20227;-90
2021/07/22 02:16:40;;;;;;;10.75;6.38;;;16.40;80.20;;;;;;5117429;28;20174;-89
2021/07/22 02:19:06;;;;;;;11.15;6.15;;;16.40;79.60;;;;;;5117298;28;20197;-90
2021/07/22 02:21:32;;;;;;;10.45;6.07;;;16.20;79.70;;;;;;5117437;28;20261;-90
2021/07/22 02:23:58;;;;;;;11.57;6.10;;;16.00;80.20;;;;;;5117539;28;20174;-90
2021/07/22 02:26:23;;;;;;;9.43;6.55;;;15.80;81.00;;;;;;5117198;28;20174;-90
2021/07/22 02:28:51;;;;;;;9.38;5.88;;;15.70;81.30;;;;;;5117325;28;20200;-90
2021/07/22 02:31:16;;;;;;;9.13;6.10;;;15.60;81.60;;;;;;5117349;28;20197;-90
2021/07/22 02:33:42;;;;;;;12.70;6.18;;;15.60;81.60;;;;;;5117203;28;20221;-90
2021/07/22 02:36:08;;;;;;;10.65;6.75;;;15.70;81.60;;;;;;5117168;28;20636;-90
2021/07/22 02:38:34;;;;;;;11.25;5.68;;;15.70;81.20;;;;;;5117147;28;20186;-90
2021/07/22 02:41:00;;;;;;;8.43;5.50;;;15.80;81.00;;;;;;5117085;28;20161;-90
2021/07/22 02:43:25;;;;;;;10.57;6.07;;;15.80;80.90;;;;;;5117177;28;20178;-90
2021/07/22 02:45:51;;;;;;;7.95;5.63;;;15.80;80.80;;;;;;5117174;28;20170;-90
2021/07/22 02:48:17;;;;;;;6.95;5.57;;;15.80;80.70;;;;;;5116918;28;20715;-90
2021/07/22 02:50:42;;;;;;;7.45;5.65;;;15.90;80.70;;;;;;5116801;28;20170;-90
2021/07/22 02:53:08;;;;;;;8.63;5.43;;;15.90;80.80;;;;;;5116664;28;20638;-90
2021/07/22 02:55:34;;;;;;;9.68;5.22;;;15.90;80.80;;;;;;5116634;28;20655;-90
2021/07/22 02:58:06;;;;;;;11.50;5.93;;;15.90;80.70;;;;;;5116673;28;20271;-90
2021/07/22 03:00:32;;;;;;;12.40;6.45;;;15.90;80.60;;;;;;5116498;28;20181;-90
2021/07/22 03:03:02;;;;;;;6.68;5.30;;;15.90;80.60;;;;;;5098423;28;20173;-90
2021/07/22 03:05:30;;;;;;;9.35;5.53;;;16.00;80.70;;;;;;5096905;28;20184;-89
2021/07/22 03:07:59;;;;;;;11.60;5.50;;;16.00;80.80;;;;;;5116733;28;20194;-90
2021/07/22 03:10:25;;;;;;;7.07;5.57;;;16.00;81.00;;;;;;5116601;28;20193;-90
2021/07/22 03:12:52;;;;;;;9.05;5.85;;;16.00;81.20;;;;;;5116388;28;20277;-90
2021/07/22 03:15:18;;;;;;;12.70;6.15;;;16.00;81.30;;;;;;5116382;28;20244;-90
2021/07/22 03:17:44;;;;;;;10.23;6.25;;;16.10;81.50;;;;;;5116563;28;20255;-90
2021/07/22 03:20:11;;;;;;;7.90;5.70;;;16.10;81.70;;;;;;5116511;28;20512;-90
2021/07/22 03:22:37;;;;;;;9.90;5.65;;;16.10;81.80;;;;;;5098297;28;20561;-90
2021/07/22 03:25:03;;;;;;;13.75;6.30;;;16.10;81.80;;;;;;5097993;28;20257;-90
2021/07/22 03:27:28;;;;;;;8.10;6.45;;;16.10;81.70;;;;;;5116502;28;20202;-90
2021/07/22 03:29:54;;;;;;;7.28;6.10;;;16.10;81.80;;;;;;5116586;28;20166;-90
2021/07/22 03:32:20;;;;;;;15.23;6.78;;;16.10;81.70;;;;;;5116021;28;20201;-90
2021/07/22 03:34:45;;;;;;;13.40;7.53;;;16.00;81.80;;;;;;5116038;28;20167;-90
2021/07/22 03:37:11;;;;;;;12.70;7.47;;;16.00;82.00;;;;;;5115945;28;20239;-90
2021/07/22 03:39:37;;;;;;;10.40;5.90;;;16.00;82.00;;;;;;5115860;28;20312;-90
2021/07/22 03:42:04;;;;;;;12.95;6.28;;;16.00;81.90;;;;;;5115802;28;20173;-90
2021/07/22 03:44:30;;;;;;;14.10;7.00;;;16.10;81.80;;;;;;5115832;28;20162;-90
2021/07/22 03:46:56;;;;;;;10.35;6.40;;;16.00;81.90;;;;;;5116454;28;20167;-90
2021/07/22 03:49:22;;;;;;;12.05;6.57;;;16.10;81.70;;;;;;5097769;28;20248;-90
2021/07/22 03:51:47;;;;;;;10.23;6.72;;;16.10;81.60;;;;;;5115847;28;20554;-90
2021/07/22 03:54:14;;;;;;;13.30;6.72;;;16.10;81.50;;;;;;5097301;28;20301;-90
2021/07/22 03:56:40;;;;;;;10.15;6.80;;;16.00;81.30;;;;;;5115873;28;20164;-90
2021/07/22 03:59:06;;;;;;;11.98;7.22;;;16.10;81.40;;;;;;5116102;28;20162;-90
2021/07/22 04:01:32;;;;;;;11.90;6.78;;;16.00;81.10;;;;;;5115680;28;20166;-90
2021/07/22 04:03:58;;;;;;;12.55;7.22;;;16.00;81.20;;;;;;5115840;28;20166;-90
2021/07/22 04:06:23;;;;;;;11.15;7.18;;;16.10;81.30;;;;;;5115812;28;20174;-90
2021/07/22 04:08:49;;;;;;;15.63;6.57;;;16.10;81.40;;;;;;5115508;28;20723;-90
2021/07/22 04:11:14;;;;;;;14.25;7.00;;;16.10;81.40;;;;;;5115696;28;20190;-90
2021/07/22 04:13:40;;;;;;;15.55;7.93;;;16.20;81.20;;;;;;5115346;28;20284;-90
2021/07/22 04:16:06;;;;;;;10.63;8.75;;;16.10;81.20;;;;;;5114953;28;20225;-90
2021/07/22 04:18:31;;;;;;;13.52;8.10;;;16.10;81.00;;;;;;5097263;28;20241;-90
2021/07/22 04:20:59;;;;;;;12.27;7.13;;;16.10;81.10;;;;;;5115605;28;20574;-90
2021/07/22 04:23:25;;;;;;;12.30;7.97;;;16.10;80.90;;;;;;5115482;28;20162;-90
2021/07/22 04:25:51;;;;;;;12.38;7.63;;;16.10;80.80;;;;;;5115200;28;20181;-90
2021/07/22 04:28:16;;;;;;;10.77;7.53;;;16.10;80.60;;;;;;5115375;28;20684;-90
2021/07/22 04:30:42;;;;;;;17.90;8.50;;;16.10;80.40;;;;;;5115614;28;20166;-90
2021/07/22 04:33:08;;;;;;;11.63;7.88;;;16.20;80.30;;;;;;5115320;28;20280;-89
2021/07/22 04:35:33;;;;;;;10.90;7.57;;;16.20;80.30;;;;;;5115201;28;20634;-90
2021/07/22 04:38:00;;;;;;;15.80;7.13;;;16.20;80.10;;;;;;5115018;28;20201;-90
2021/07/22 04:40:25;;;;;;;13.60;7.28;;;16.20;80.10;;;;;;5115607;28;20170;-90
2021/07/22 04:42:51;;;;;;;13.45;7.45;;;16.20;80.90;;;;;;5096904;28;20178;-90
2021/07/22 04:45:17;;;;;;;12.60;7.55;;;16.10;81.30;;;;;;5115536;28;20174;-90
2021/07/22 04:47:43;;;;;;;15.32;7.22;;;16.20;81.20;;;;;;5114983;28;20190;-90
2021/07/22 04:50:09;;;;;;;12.73;6.75;;;16.20;81.20;;;;;;5114814;28;20185;-90
2021/07/22 04:52:35;;;;;;;11.95;7.03;;;16.20;81.20;;;;;;5115147;28;20190;-91
2021/07/22 04:55:00;;;;;;;14.02;6.70;;;16.20;81.20;;;;;;5096949;28;20181;-90
2021/07/22 04:57:27;;;;;;;17.15;7.95;;;16.20;81.30;;;;;;5115025;28;20243;-90
2021/07/22 04:59:53;;;;;;;11.32;7.88;;;16.20;81.70;;;;;;5115288;28;20174;-90
2021/07/22 05:02:19;;;;;;;10.40;7.57;;;16.20;81.90;;;;;;5114792;28;20528;-90
2021/07/22 05:04:45;;;;;;;14.63;7.35;;;16.20;82.10;;;;;;5114858;28;20170;-90
2021/07/22 05:07:11;;;;;;;11.40;6.97;;;16.30;82.20;;;;;;5114644;28;20193;-90
2021/07/22 05:09:37;;;;;;;12.85;6.88;;;16.20;81.70;;;;;;5114408;28;20166;-90
2021/07/22 05:12:04;;;;;;;17.52;7.30;;;16.30;81.60;;;;;;5095958;28;20178;-90
2021/07/22 05:14:30;;;;;;;11.65;6.82;;;16.30;81.10;;;;;;5114288;28;20166;-90
2021/07/22 05:19:25;;;;;;;10.38;7.55;;;16.20;81.90;;;;;;5072887;28;20199;-89
2021/07/22 05:21:51;;;;;;;17.73;8.50;;;16.10;81.80;;;;;;5074160;28;20536;-90
2021/07/22 05:24:16;;;;;;;10.63;7.28;;;16.00;81.10;;;;;;5073747;28;20171;-90
2021/07/22 05:26:42;;;;;;;9.98;7.57;;;16.10;80.20;;;;;;5073377;28;20175;-90
2021/07/22 05:29:09;;;;;;;12.10;7.68;;;16.10;80.80;;;;;;5073274;28;20202;-90
2021/07/22 05:31:42;;;;;;;11.85;7.80;;;16.20;80.40;;;;;;5073683;28;20175;-90
2021/07/22 05:34:08;;;;;;;9.63;7.68;;;16.20;80.40;;;;;;5073742;28;20251;-90
2021/07/22 05:36:34;;;;;;;12.30;7.47;;;16.20;80.40;;;;;;5074041;28;20175;-90
2021/07/22 05:39:00;;;;;;;12.73;7.95;;;16.20;80.20;;;;;;5073496;28;20191;-90
2021/07/22 05:41:26;;;;;;;12.65;7.07;;;16.30;80.30;;;;;;5073452;28;20175;-90
2021/07/22 05:43:51;;;;;;;13.30;7.35;;;16.30;79.90;;;;;;5073905;28;20174;-90
2021/07/22 05:46:19;;;;;;;12.23;7.75;;;16.20;80.70;;;;;;5055814;28;20179;-90
2021/07/22 05:48:45;;;;;;;10.90;7.05;;;16.20;80.20;;;;;;5073232;28;20257;-90
2021/07/22 05:51:11;;;;;;;13.77;7.05;;;16.30;80.10;;;;;;5073913;28;20174;-90
2021/07/22 05:53:36;;;;;;;8.45;6.78;;;16.40;80.10;;;;;;5073261;28;20199;-90
2021/07/22 05:56:02;;;;;;;13.13;6.90;;;16.40;79.60;;;;;;5073558;28;20214;-90
2021/07/22 05:58:28;;;;;;;10.82;6.55;;;16.50;79.10;;;;;;5073002;28;20271;-90
2021/07/22 06:00:53;;;;;;;13.13;7.00;;;16.50;79.10;;;;;;5073290;28;20171;-90
2021/07/22 06:03:19;;;;;;;11.80;7.10;;;16.50;79.00;;;;;;5073252;28;20643;-90
2021/07/22 06:05:45;;;;;;;14.32;7.05;;;16.50;77.90;;;;;;5073177;28;20179;-90
2021/07/22 06:08:11;;;;;;;12.75;6.43;;;16.40;77.90;;;;;;5073157;28;20651;-90
2021/07/22 06:10:37;;;;;;;9.95;6.22;;;16.50;78.30;;;;;;5073521;28;20226;-90
2021/07/22 06:13:03;;;;;;;10.63;6.05;;;16.50;76.90;;;;;;5073254;28;20202;-90
2021/07/22 06:15:28;;;;;;;8.32;6.10;;;16.50;77.00;;;;;;5073148;28;20164;-90
2021/07/22 06:17:54;;;;;;;8.50;5.95;;;16.50;76.10;;;;;;5073044;28;20210;-90
2021/07/22 06:20:20;;;;;;;11.93;6.68;;;16.60;76.70;;;;;;5073160;28;20167;-90
2021/07/22 06:22:45;;;;;;;10.75;6.28;;;16.70;76.90;;;;;;5055159;28;20225;-90
2021/07/22 06:25:15;;;;;;;12.75;6.18;;;16.70;76.50;;;;;;5073274;28;20171;-90
2021/07/22 06:27:42;;;;;;;9.65;5.65;;;16.70;76.00;;;;;;5072796;28;20195;-90
2021/07/22 06:30:09;;;;;;;10.57;5.85;;;16.80;75.10;;;;;;5072813;28;20255;-90
2021/07/22 06:32:35;;;;;;;10.88;5.70;;;16.70;74.80;;;;;;5072870;28;20200;-90
2021/07/22 06:35:01;;;;;;;10.20;5.80;;;16.60;72.40;;;;;;5072910;28;20175;-90
2021/07/22 06:37:26;;;;;;;7.15;5.22;;;16.60;73.50;;;;;;5073333;28;20179;-89
2021/07/22 06:39:52;;;;;;;6.85;5.32;;;16.60;74.40;;;;;;5075066;28;20179;-89
2021/07/22 06:42:17;;;;;;;11.70;5.47;;;16.70;74.10;;;;;;5076248;28;20167;-89
2021/07/22 06:44:43;;;;;;;7.40;4.90;;;16.70;73.40;;;;;;5076434;28;20168;-89
2021/07/22 06:47:09;;;;;;;11.65;5.57;;;16.80;72.60;;;;;;5058332;28;20191;-89
2021/07/22 06:49:35;;;;;;;11.82;4.60;;;16.80;73.20;;;;;;5058230;28;20171;-89
2021/07/22 06:52:01;;;;;;;9.38;4.88;;;16.80;71.70;;;;;;5075985;28;20685;-89
2021/07/22 06:54:26;;;;;;;7.18;5.03;;;16.90;73.10;;;;;;5076039;28;20195;-89
2021/07/22 06:56:52;;;;;;;10.30;5.53;;;17.00;72.70;;;;;;5075937;28;20221;-88
2021/07/22 06:59:18;;;;;;;6.30;4.90;;;16.90;71.80;;;;;;5075927;28;20254;-89
2021/07/22 07:01:43;;;;;;;11.02;5.28;;;17.00;71.70;;;;;;5076176;28;20305;-89
2021/07/22 07:04:09;;;;;;;7.95;4.97;;;17.00;72.70;;;;;;5075775;28;20735;-89
2021/07/22 07:06:35;;;;;;;12.10;5.28;;;17.10;72.70;;;;;;5075694;28;20181;-89
2021/07/22 07:09:05;;;;;;;11.65;6.32;;;17.20;71.90;;;;;;5075673;28;20274;-89
2021/07/22 07:11:31;;;;;;;8.10;5.50;;;17.20;72.10;;;;;;5075691;28;20260;-89
2021/07/22 07:13:56;;;;;;;9.25;5.00;;;17.30;72.20;;;;;;5075493;28;20294;-89
2021/07/22 07:16:22;;;;;;;11.98;5.63;;;17.40;70.50;;;;;;5075823;28;20659;-89
2021/07/22 07:18:48;;;;;;;8.43;5.07;;;17.40;71.70;;;;;;5075364;28;20569;-89
2021/07/22 07:21:14;;;;;;;6.72;4.32;;;17.50;71.90;;;;;;5075497;28;20197;-89
2021/07/22 07:23:39;;;;;;;6.72;4.70;;;17.30;71.40;;;;;;5075471;28;20643;-89
2021/07/22 07:26:09;;;;;;;7.93;5.20;;;17.50;72.00;;;;;;5057428;28;20180;-89
2021/07/22 07:28:35;;;;;;;13.48;5.05;;;17.60;70.50;;;;;;5075322;28;20282;-90
2021/07/22 07:31:01;;;;;;;9.52;4.97;;;17.70;70.40;;;;;;5075612;28;20305;-89
2021/07/22 07:33:29;;;;;;;6.75;4.65;;;17.80;71.40;;;;;;5075529;28;20653;-89
2021/07/22 07:35:56;;;;;;;11.07;4.18;;;18.00;70.50;;;;;;5075102;28;20168;-89
2021/07/22 07:38:22;;;;;;;10.25;4.75;;;18.00;68.80;;;;;;5075215;28;20241;-89
2021/07/22 07:40:48;;;;;;;8.52;4.53;;;18.00;70.10;;;;;;5075111;28;20163;-89
2021/07/22 07:43:18;;;;;;;8.20;4.47;;;18.00;70.60;;;;;;5075436;28;20263;-89
2021/07/22 07:45:44;;;;;;;10.10;4.30;;;17.80;70.80;;;;;;5074913;28;20254;-89
2021/07/22 07:48:10;;;;;;;14.52;4.47;;;17.80;70.10;;;;;;5074863;28;20226;-89
2021/07/22 07:50:36;;;;;;;7.50;3.92;;;17.80;71.10;;;;;;5074211;28;20171;-89
2021/07/22 07:53:13;;;;;;;6.97;3.72;;;18.00;69.10;;;;;;5056912;28;20710;-89
2021/07/22 07:55:39;;;;;;;7.57;3.95;;;18.10;68.60;;;;;;5074765;28;20194;-89
2021/07/22 07:58:05;;;;;;;6.30;4.07;;;18.20;68.90;;;;;;5074717;28;20678;-89
2021/07/22 08:00:30;;;;;;;9.60;4.05;;;18.00;68.40;;;;;;5074751;28;20178;-90
2021/07/22 08:02:58;;;;;;;6.60;4.10;;;18.00;69.10;;;;;;5056762;28;20587;-89
2021/07/22 08:05:27;;;;;;;8.35;4.05;;;18.30;70.00;;;;;;5074576;28;20168;-90
2021/07/22 08:07:53;;;;;;;6.90;3.70;;;18.20;68.60;;;;;;5074394;28;20196;-89
2021/07/22 08:10:20;;;;;;;5.65;3.47;;;18.00;66.30;;;;;;5074470;28;20740;-89
2021/07/22 08:12:46;;;;;;;5.78;3.70;;;18.00;67.30;;;;;;5056504;28;20199;-89
2021/07/22 08:15:12;;;;;;;8.05;3.67;;;18.10;68.70;;;;;;5074513;28;20175;-89
2021/07/22 08:17:38;;;;;;;5.90;3.35;;;18.30;68.00;;;;;;5074329;28;20203;-89
2021/07/22 08:20:06;;;;;;;4.82;3.20;;;18.30;67.40;;;;;;5074358;28;20178;-89
2021/07/22 08:22:36;;;;;;;6.43;3.40;;;18.30;67.30;;;;;;5074406;28;20179;-89
2021/07/22 08:25:02;;;;;;;4.22;3.00;;;18.50;66.50;;;;;;5074458;28;20167;-90
2021/07/22 08:27:32;;;;;;;4.32;2.80;;;18.80;64.40;;;;;;5074522;28;20201;-89
2021/07/22 08:29:59;;;;;;;6.53;3.70;;;18.90;64.80;;;;;;5074228;28;20263;-90
2021/07/22 08:32:26;;;;;;;5.43;3.28;;;18.90;65.10;;;;;;5075872;28;20195;-90
2021/07/22 08:34:52;;;;;;;6.45;3.03;;;18.90;63.80;;;;;;5075730;28;20700;-90
2021/07/22 08:37:18;;;;;;;4.43;2.97;;;18.50;64.10;;;;;;5075870;28;20679;-90
2021/07/22 08:39:45;;;;;;;4.43;3.20;;;18.50;64.80;;;;;;5075010;28;20254;-90
2021/07/22 08:42:12;;;;;;;4.93;3.25;;;18.70;65.40;;;;;;5074464;28;20250;-90
2021/07/22 08:44:40;;;;;;;8.60;3.15;;;18.90;64.00;;;;;;5074023;28;20172;-90
2021/07/22 08:47:09;;;;;;;4.03;2.90;;;19.20;63.00;;;;;;5074336;28;20187;-90
2021/07/22 08:49:36;;;;;;;2.60;2.40;;;19.60;61.30;;;;;;5074243;28;20171;-90
2021/07/22 08:52:07;;;;;;;5.68;3.03;;;19.70;60.00;;;;;;5074131;28;20675;-91
2021/07/22 08:54:33;;;;;;;4.20;2.65;;;19.70;58.70;;;;;;5074153;28;20164;-90
2021/07/22 08:56:59;;;;;;;5.70;3.20;;;19.40;61.50;;;;;;5073718;28;20178;-90
2021/07/22 08:59:26;;;;;;;10.38;4.20;;;19.70;60.90;;;;;;5073997;28;20179;-91
2021/07/22 09:01:52;;;;;;;4.20;2.75;;;19.70;59.80;;;;;;5073895;28;20611;-90
2021/07/22 09:04:18;;;;;;;5.13;2.47;;;19.80;59.20;;;;;;5074389;28;20257;-91
2021/07/22 09:06:44;;;;;;;6.63;2.92;;;19.80;60.20;;;;;;5073618;28;20206;-91
2021/07/22 09:09:16;;;;;;;7.78;4.18;;;19.80;59.70;;;;;;5073770;28;20195;-90
2021/07/22 09:12:08;;;;;;;5.95;2.83;;;19.70;59.60;;;;;;5074207;28;20216;-91
2021/07/22 09:14:35;;;;;;;5.35;2.50;;;20.00;59.70;;;;;;5070149;28;20249;-90
2021/07/22 09:17:01;;;;;;;6.72;3.08;;;19.80;60.70;;;;;;5073366;28;20172;-90
2021/07/22 09:19:30;;;;;;;9.63;2.70;;;20.10;58.80;;;;;;5074505;28;20198;-91
2021/07/22 09:21:56;;;;;;;3.47;2.33;;;20.20;57.80;;;;;;5074361;28;20639;-91
2021/07/22 09:24:21;;;;;;;4.63;2.40;;;19.70;59.80;;;;;;5073983;28;20205;-91
2021/07/22 09:26:50;;;;;;;5.40;2.78;;;19.80;59.40;;;;;;5073463;28;20216;-90
2021/07/22 09:29:17;;;;;;;6.43;2.60;;;19.80;59.60;;;;;;5073694;28;20164;-91
2021/07/22 09:31:43;;;;;;;3.20;2.40;;;19.40;61.40;;;;;;5073803;28;20171;-90
2021/07/22 09:34:24;;;;;;;4.47;2.60;;;19.70;61.10;;;;;;5073327;28;20195;-90
2021/07/22 09:36:50;;;;;;;8.43;2.97;;;19.80;60.60;;;;;;5073709;28;20166;-90
2021/07/22 09:39:28;;;;;;;3.00;2.70;;;19.50;61.10;;;;;;5075708;28;20171;-91
2021/07/22 09:42:05;;;;;;;5.15;2.88;;;19.70;60.60;;;;;;5079138;28;20177;-91
2021/07/22 09:44:38;;;;;;;6.70;2.60;;;19.60;60.70;;;;;;5079913;28;20155;-91
2021/07/22 09:47:06;;;;;;;5.45;2.45;;;19.90;59.00;;;;;;5062246;28;20177;-91
2021/07/22 09:49:37;;;;;;;2.72;2.10;;;20.20;58.60;;;;;;5079998;28;20176;-91
2021/07/22 09:52:09;;;;;;;4.22;2.17;;;20.40;57.20;;;;;;5073609;28;20155;-90
2021/07/22 09:54:36;;;;;;;3.05;2.40;;;20.40;58.10;;;;;;5073250;28;20166;-90
2021/07/22 09:57:04;;;;;;;6.07;2.92;;;20.30;58.70;;;;;;5072892;28;20251;-90
2021/07/22 09:59:32;;;;;;;4.60;2.55;;;20.20;60.20;;;;;;5072946;28;20195;-90
2021/07/22 10:02:04;;;;;;;4.45;2.40;;;20.00;59.70;;;;;;5054963;28;20179;-90
2021/07/22 10:04:30;;;;;;;8.90;2.35;;;20.30;58.20;;;;;;5072974;28;20160;-90
2021/07/22 10:06:59;;;;;;;3.83;2.00;;;20.70;59.30;;;;;;5054934;28;20286;-90
2021/07/22 10:09:27;;;;;;;5.18;1.95;;;20.90;56.80;;;;;;5072856;28;20167;-89
2021/07/22 10:11:53;;;;;;;10.07;2.50;;;21.20;56.70;;;;;;5072760;28;20210;-90
2021/07/22 10:14:20;;;;;;;4.75;1.52;;;21.10;55.80;;;;;;5074579;28;20280;-90
2021/07/22 10:16:48;;;;;;;5.93;2.05;;;21.30;55.00;;;;;;5058731;28;20237;-90
2021/07/22 10:19:16;;;;;;;5.30;1.80;;;21.20;55.90;;;;;;5076636;28;20186;-90
2021/07/22 10:21:42;;;;;;;9.02;2.00;;;21.30;55.80;;;;;;5076594;28;20213;-91
2021/07/22 10:24:09;;;;;;;4.18;1.98;;;21.20;54.00;;;;;;5076490;28;20201;-90
2021/07/22 10:26:42;;;;;;;8.57;1.92;;;20.40;57.00;;;;;;5058577;28;20183;-90
2021/07/22 10:29:07;;;;;;;7.28;1.85;;;20.60;58.10;;;;;;5076295;28;20188;-90
2021/07/22 10:31:38;;;;;;;3.03;1.27;;;21.00;56.00;;;;;;5076386;28;20573;-90
2021/07/22 10:34:05;;;;;;;4.00;1.42;;;20.80;56.60;;;;;;5058460;28;20643;-90
2021/07/22 10:36:31;;;;;;;3.90;1.65;;;20.90;55.80;;;;;;5076443;28;20250;-90
2021/07/22 10:38:56;;;;;;;3.83;1.60;;;21.10;55.20;;;;;;5076372;28;20214;-90
2021/07/22 10:41:36;;;;;;;7.85;2.00;;;21.10;55.70;;;;;;5076230;28;20163;-90
2021/07/22 10:44:03;;;;;;;4.97;1.98;;;21.10;53.40;;;;;;5076299;28;20576;-91
2021/07/22 10:46:52;;;;;;;4.28;2.10;;;21.20;55.70;;;;;;5076226;28;20174;-91
2021/07/22 10:49:18;;;;;;;4.95;1.77;;;21.40;54.10;;;;;;5058744;28;20241;-90
2021/07/22 10:51:45;;;;;;;8.52;1.92;;;21.30;54.50;;;;;;5076434;28;20172;-92
2021/07/22 10:54:53;;;;;;;8.10;2.00;;;21.50;53.60;;;;;;5076131;28;20198;-91
2021/07/22 10:57:38;;;;;;;3.28;1.42;;;21.90;54.50;;;;;;5077335;28;20194;-91
2021/07/22 11:00:07;;;;;;;3.75;1.67;;;22.30;51.90;;;;;;5076258;28;20194;-91
2021/07/22 11:02:43;;;;;;;7.15;2.10;;;22.40;53.20;;;;;;5058818;28;20183;-91
2021/07/22 11:05:32;;;;;;;6.78;1.60;;;22.50;52.80;;;;;;5077524;28;20230;-91
2021/07/22 11:08:20;;;;;;;6.80;1.83;;;22.20;54.30;;;;;;5062683;28;20308;-91
2021/07/22 11:10:56;;;;;;;7.07;1.75;;;22.10;53.50;;;;;;5076412;28;20541;-91
2021/07/22 11:13:37;;;;;;;5.45;1.60;;;21.90;50.10;;;;;;5076426;28;20183;-91
2021/07/22 11:16:07;;;;;;;5.10;1.33;;;21.70;51.90;;;;;;5058807;28;20178;-92
2021/07/22 11:21:07;;;;;;;4.03;1.40;;;22.10;52.00;;;;;;5075735;28;20699;-86
2021/07/22 11:23:33;;;;;;;7.85;1.70;;;22.20;52.70;;;;;;5057415;28;20187;-85
2021/07/22 11:25:59;;;;;;;7.80;1.58;;;22.60;51.40;;;;;;5056238;28;20210;-86
2021/07/22 11:28:26;;;;;;;6.43;1.63;;;22.40;52.00;;;;;;5075475;28;20686;-86
2021/07/22 11:31:02;;;;;;;3.38;1.17;;;21.90;54.60;;;;;;5075219;28;20259;-86
2021/07/22 11:33:33;;;;;;;4.07;1.40;;;22.10;52.70;;;;;;5075339;28;20194;-86
2021/07/22 11:36:04;;;;;;;5.47;1.45;;;22.20;54.20;;;;;;5057176;28;20194;-85
2021/07/22 11:38:30;;;;;;;7.40;1.80;;;22.50;51.30;;;;;;5075321;28;20244;-85
2021/07/22 11:40:56;;;;;;;7.35;1.58;;;22.40;53.50;;;;;;5057048;28;20176;-86
2021/07/22 11:43:36;;;;;;;5.00;1.40;;;22.70;50.50;;;;;;5057033;28;20597;-85
2021/07/22 11:46:03;;;;;;;3.05;1.27;;;22.90;50.60;;;;;;5057051;28;20179;-85
2021/07/22 11:48:29;;;;;;;2.70;1.35;;;22.70;51.70;;;;;;5074675;28;20602;-86
2021/07/22 11:51:13;;;;;;;7.00;2.22;;;22.80;52.70;;;;;;5056960;28;20175;-85
2021/07/22 11:53:39;;;;;;;4.78;1.50;;;22.90;51.20;;;;;;5074711;28;20179;-85
2021/07/22 11:56:16;;;;;;;4.45;1.15;;;22.90;51.60;;;;;;5056793;28;20644;-85
2021/07/22 11:58:50;;;;;;;3.67;1.23;;;23.10;51.30;;;;;;5074594;28;20274;-85
2021/07/22 12:01:17;;;;;;;1.80;1.05;;;23.00;50.00;;;;;;5074563;28;20174;-86
2021/07/22 12:03:47;;;;;;;8.80;2.00;;;22.90;49.90;;;;;;5074446;28;20205;-85
2021/07/22 12:06:14;;;;;;;5.65;1.13;;;22.80;51.00;;;;;;5074469;28;20171;-85
2021/07/22 12:08:40;;;;;;;3.90;1.20;;;23.10;50.70;;;;;;5056445;28;20245;-85
2021/07/22 12:11:05;;;;;;;3.13;0.90;;;22.90;48.50;;;;;;5074451;28;20579;-85
2021/07/22 12:13:51;;;;;;;4.60;1.25;;;22.60;50.00;;;;;;5074280;28;20200;-85
2021/07/22 12:16:24;;;;;;;4.60;1.42;;;22.40;50.80;;;;;;5074231;28;20168;-85
2021/07/22 12:18:53;;;;;;;2.95;1.17;;;22.10;51.50;;;;;;5056028;28;20211;-85
2021/07/22 12:21:27;;;;;;;3.47;1.00;;;22.40;52.50;;;;;;5056312;28;20167;-85
2021/07/22 12:23:53;;;;;;;5.47;1.38;;;22.90;50.90;;;;;;5074178;28;20189;-85
2021/07/22 12:26:20;;;;;;;4.32;1.20;;;23.10;50.00;;;;;;5074025;28;20213;-85
2021/07/22 12:28:58;;;;;;;3.58;1.58;;;22.80;52.50;;;;;;5056097;28;20256;-84
2021/07/22 12:31:24;;;;;;;3.33;1.20;;;22.80;52.80;;;;;;5074041;28;20277;-85
2021/07/22 12:34:01;;;;;;;2.47;0.98;;;23.00;48.10;;;;;;5073800;28;20278;-85
2021/07/22 12:36:30;;;;;;;3.00;1.23;;;22.90;50.30;;;;;;5073569;28;20534;-86
2021/07/22 12:39:08;;;;;;;2.55;1.10;;;22.30;49.80;;;;;;5073734;28;20191;-86
2021/07/22 12:41:34;;;;;;;3.38;1.40;;;22.30;53.10;;;;;;5055942;28;20171;-87
2021/07/22 12:43:59;;;;;;;2.78;1.27;;;22.80;51.20;;;;;;5074220;28;20228;-85
2021/07/22 12:46:30;;;;;;;4.68;1.10;;;23.20;48.50;;;;;;5073680;28;20537;-86